sensor_id;sensor_type;location;lat;lon;timestamp;temperature;humidity
16064;DHT22;8136;53.172;8.256;2023-05-16T00:00:39;11.90;99.90
16064;DHT22;8136;53.172;8.256;2023-05-16T00:03:06;12.00;99.90
16064;DHT22;8136;53.172;8.256;2023-05-16T00:05:32;12.00;99.90
16064;DHT22;8136;53.172;8.256;2023-05-16T00:07:59;11.90;99.90
16064;DHT22;8136;53.172;8.256;2023-05-16T00:10:26;11.80;99.90
16064;DHT22;8136;53.172;8.256;2023-05-16T00:12:53;11.80;99.90
16064;DHT22;8136;53.172;8.256;2023-05-16T00:15:22;11.80;99.90
16064;DHT22;8136;53.172;8.256;2023-05-16T00:17:49;11.80;99.90
16064;DHT22;8136;53.172;8.256;2023-05-16T00:20:16;11.70;99.90
16064;DHT22;8136;53.172;8.256;2023-05-16T00:22:47;11.70;99.90
16064;DHT22;8136;53.172;8.256;2023-05-16T00:25:14;11.70;99.90
16064;DHT22;8136;53.172;8.256;2023-05-16T00:27:41;11.70;99.90
16064;DHT22;8136;53.172;8.256;2023-05-16T00:30:08;11.70;99.90
16064;DHT22;8136;53.172;8.256;2023-05-16T00:32:37;11.60;99.90
16064;DHT22;8136;53.172;8.256;2023-05-16T00:35:05;11.60;99.90
16064;DHT22;8136;53.172;8.256;2023-05-16T00:37:35;11.60;99.90
16064;DHT22;8136;53.172;8.256;2023-05-16T00:40:01;11.50;99.90
16064;DHT22;8136;53.172;8.256;2023-05-16T00:42:29;11.50;99.90
16064;DHT22;8136;53.172;8.256;2023-05-16T00:44:56;11.50;99.90
16064;DHT22;8136;53.172;8.256;2023-05-16T00:47:23;11.50;99.90
16064;DHT22;8136;53.172;8.256;2023-05-16T00:49:51;11.50;99.90
16064;DHT22;8136;53.172;8.256;2023-05-16T00:52:18;11.60;99.90
16064;DHT22;8136;53.172;8.256;2023-05-16T00:54:45;11.50;99.90
16064;DHT22;8136;53.172;8.256;2023-05-16T00:57:12;11.50;99.90
16064;DHT22;8136;53.172;8.256;2023-05-16T00:59:39;11.50;99.90
16064;DHT22;8136;53.172;8.256;2023-05-16T01:02:07;11.40;99.90
16064;DHT22;8136;53.172;8.256;2023-05-16T01:04:34;11.40;99.90
16064;DHT22;8136;53.172;8.256;2023-05-16T01:07:02;11.40;99.90
16064;DHT22;8136;53.172;8.256;2023-05-16T01:09:29;11.40;99.90
16064;DHT22;8136;53.172;8.256;2023-05-16T01:12:04;11.40;99.90
16064;DHT22;8136;53.172;8.256;2023-05-16T01:14:41;11.30;99.90
16064;DHT22;8136;53.172;8.256;2023-05-16T01:17:16;11.30;99.90
16064;DHT22;8136;53.172;8.256;2023-05-16T01:19:53;11.30;99.90
16064;DHT22;8136;53.172;8.256;2023-05-16T01:22:29;11.40;99.90
16064;DHT22;8136;53.172;8.256;2023-05-16T01:25:05;11.30;99.90
16064;DHT22;8136;53.172;8.256;2023-05-16T01:27:34;11.30;99.90
16064;DHT22;8136;53.172;8.256;2023-05-16T01:30:13;11.20;99.90
16064;DHT22;8136;53.172;8.256;2023-05-16T01:32:41;11.30;99.90
16064;DHT22;8136;53.172;8.256;2023-05-16T01:35:10;11.30;99.90
16064;DHT22;8136;53.172;8.256;2023-05-16T01:37:41;11.30;99.90
16064;DHT22;8136;53.172;8.256;2023-05-16T01:40:15;11.20;99.90
16064;DHT22;8136;53.172;8.256;2023-05-16T01:42:45;11.20;99.90
16064;DHT22;8136;53.172;8.256;2023-05-16T01:45:19;11.20;99.90
16064;DHT22;8136;53.172;8.256;2023-05-16T01:47:51;11.10;99.90
16064;DHT22;8136;53.172;8.256;2023-05-16T01:50:21;11.10;99.90
16064;DHT22;8136;53.172;8.256;2023-05-16T01:52:59;11.10;99.90
16064;DHT22;8136;53.172;8.256;2023-05-16T01:55:31;11.00;99.90
16064;DHT22;8136;53.172;8.256;2023-05-16T01:58:03;11.00;99.90
16064;DHT22;8136;53.172;8.256;2023-05-16T02:00:30;11.00;99.90
16064;DHT22;8136;53.172;8.256;2023-05-16T02:02:57;10.90;99.90
16064;DHT22;8136;53.172;8.256;2023-05-16T02:05:24;10.80;99.90
16064;DHT22;8136;53.172;8.256;2023-05-16T02:07:51;10.80;99.90
16064;DHT22;8136;53.172;8.256;2023-05-16T02:10:18;10.80;99.90
16064;DHT22;8136;53.172;8.256;2023-05-16T02:12:45;10.80;99.90
16064;DHT22;8136;53.172;8.256;2023-05-16T02:15:13;10.70;99.90
16064;DHT22;8136;53.172;8.256;2023-05-16T02:17:40;10.70;99.90
16064;DHT22;8136;53.172;8.256;2023-05-16T02:20:08;10.70;99.90
16064;DHT22;8136;53.172;8.256;2023-05-16T02:22:35;10.60;99.90
16064;DHT22;8136;53.172;8.256;2023-05-16T02:25:05;10.60;99.90
16064;DHT22;8136;53.172;8.256;2023-05-16T02:27:32;10.50;99.90
16064;DHT22;8136;53.172;8.256;2023-05-16T02:29:58;10.60;99.90
16064;DHT22;8136;53.172;8.256;2023-05-16T02:32:27;10.60;99.90
16064;DHT22;8136;53.172;8.256;2023-05-16T02:34:53;10.50;99.90
16064;DHT22;8136;53.172;8.256;2023-05-16T02:37:20;10.50;99.90
16064;DHT22;8136;53.172;8.256;2023-05-16T02:39:47;10.40;99.90
16064;DHT22;8136;53.172;8.256;2023-05-16T02:42:14;10.30;99.90
16064;DHT22;8136;53.172;8.256;2023-05-16T02:44:41;10.30;99.90
16064;DHT22;8136;53.172;8.256;2023-05-16T02:47:07;10.20;99.90
16064;DHT22;8136;53.172;8.256;2023-05-16T02:49:35;10.20;99.90
16064;DHT22;8136;53.172;8.256;2023-05-16T02:52:03;10.20;99.90
16064;DHT22;8136;53.172;8.256;2023-05-16T02:54:29;10.10;99.90
16064;DHT22;8136;53.172;8.256;2023-05-16T02:56:56;10.10;99.90
16064;DHT22;8136;53.172;8.256;2023-05-16T02:59:23;10.00;99.90
16064;DHT22;8136;53.172;8.256;2023-05-16T03:01:50;9.90;99.90
16064;DHT22;8136;53.172;8.256;2023-05-16T03:04:17;9.90;99.90
16064;DHT22;8136;53.172;8.256;2023-05-16T03:06:45;9.90;99.90
16064;DHT22;8136;53.172;8.256;2023-05-16T03:09:12;9.80;99.90
16064;DHT22;8136;53.172;8.256;2023-05-16T03:11:38;9.80;99.90
16064;DHT22;8136;53.172;8.256;2023-05-16T03:14:05;9.80;99.90
16064;DHT22;8136;53.172;8.256;2023-05-16T03:16:32;9.70;99.90
16064;DHT22;8136;53.172;8.256;2023-05-16T03:19:01;9.70;99.90
16064;DHT22;8136;53.172;8.256;2023-05-16T03:21:27;9.60;99.90
16064;DHT22;8136;53.172;8.256;2023-05-16T03:23:56;9.70;99.90
16064;DHT22;8136;53.172;8.256;2023-05-16T03:26:22;9.70;99.90
16064;DHT22;8136;53.172;8.256;2023-05-16T03:28:49;9.60;99.90
16064;DHT22;8136;53.172;8.256;2023-05-16T03:31:16;9.70;99.90
16064;DHT22;8136;53.172;8.256;2023-05-16T03:33:43;9.60;99.90
16064;DHT22;8136;53.172;8.256;2023-05-16T03:36:10;9.60;99.90
16064;DHT22;8136;53.172;8.256;2023-05-16T03:38:37;9.50;99.90
16064;DHT22;8136;53.172;8.256;2023-05-16T03:41:06;9.50;99.90
16064;DHT22;8136;53.172;8.256;2023-05-16T03:43:32;9.50;99.90
16064;DHT22;8136;53.172;8.256;2023-05-16T03:46:00;9.50;99.90
16064;DHT22;8136;53.172;8.256;2023-05-16T03:48:27;9.40;99.90
16064;DHT22;8136;53.172;8.256;2023-05-16T03:50:54;9.40;99.90
16064;DHT22;8136;53.172;8.256;2023-05-16T03:53:20;9.20;99.90
16064;DHT22;8136;53.172;8.256;2023-05-16T03:55:47;9.20;99.90
16064;DHT22;8136;53.172;8.256;2023-05-16T03:58:15;9.20;99.90
16064;DHT22;8136;53.172;8.256;2023-05-16T04:00:42;9.30;99.90
16064;DHT22;8136;53.172;8.256;2023-05-16T04:03:10;9.30;99.90
16064;DHT22;8136;53.172;8.256;2023-05-16T04:05:37;9.30;99.90
16064;DHT22;8136;53.172;8.256;2023-05-16T04:08:04;9.20;99.90
16064;DHT22;8136;53.172;8.256;2023-05-16T04:10:31;9.30;99.90
16064;DHT22;8136;53.172;8.256;2023-05-16T04:12:57;9.30;99.90
16064;DHT22;8136;53.172;8.256;2023-05-16T04:15:26;9.20;99.90
16064;DHT22;8136;53.172;8.256;2023-05-16T04:17:52;9.20;99.90
16064;DHT22;8136;53.172;8.256;2023-05-16T04:20:19;9.20;99.90
16064;DHT22;8136;53.172;8.256;2023-05-16T04:22:46;9.30;99.90
16064;DHT22;8136;53.172;8.256;2023-05-16T04:25:13;9.30;99.90
16064;DHT22;8136;53.172;8.256;2023-05-16T04:27:40;9.40;99.90
16064;DHT22;8136;53.172;8.256;2023-05-16T04:30:07;9.40;99.90
16064;DHT22;8136;53.172;8.256;2023-05-16T04:32:37;9.40;99.90
16064;DHT22;8136;53.172;8.256;2023-05-16T04:35:04;9.50;99.90
16064;DHT22;8136;53.172;8.256;2023-05-16T04:37:31;9.50;99.90
16064;DHT22;8136;53.172;8.256;2023-05-16T04:39:58;9.40;99.90
16064;DHT22;8136;53.172;8.256;2023-05-16T04:42:25;9.50;99.90
16064;DHT22;8136;53.172;8.256;2023-05-16T04:44:52;9.50;99.90
16064;DHT22;8136;53.172;8.256;2023-05-16T04:47:18;9.50;99.90
16064;DHT22;8136;53.172;8.256;2023-05-16T04:49:46;9.50;99.90
16064;DHT22;8136;53.172;8.256;2023-05-16T04:52:13;9.50;99.90
16064;DHT22;8136;53.172;8.256;2023-05-16T04:54:40;9.60;99.90
16064;DHT22;8136;53.172;8.256;2023-05-16T04:57:07;9.70;99.90
16064;DHT22;8136;53.172;8.256;2023-05-16T04:59:33;9.60;99.90
16064;DHT22;8136;53.172;8.256;2023-05-16T05:02:00;9.60;99.90
16064;DHT22;8136;53.172;8.256;2023-05-16T05:04:28;9.60;99.90
16064;DHT22;8136;53.172;8.256;2023-05-16T05:06:56;9.60;99.90
16064;DHT22;8136;53.172;8.256;2023-05-16T05:09:24;9.70;99.90
16064;DHT22;8136;53.172;8.256;2023-05-16T05:11:51;9.70;99.90
16064;DHT22;8136;53.172;8.256;2023-05-16T05:14:18;9.70;99.90
16064;DHT22;8136;53.172;8.256;2023-05-16T05:16:45;9.70;99.90
16064;DHT22;8136;53.172;8.256;2023-05-16T05:19:11;9.70;99.90
16064;DHT22;8136;53.172;8.256;2023-05-16T05:21:38;9.70;99.90
16064;DHT22;8136;53.172;8.256;2023-05-16T05:24:06;9.70;99.90
16064;DHT22;8136;53.172;8.256;2023-05-16T05:26:33;9.80;99.90
16064;DHT22;8136;53.172;8.256;2023-05-16T05:29:00;9.90;99.90
16064;DHT22;8136;53.172;8.256;2023-05-16T05:31:27;9.90;99.90
16064;DHT22;8136;53.172;8.256;2023-05-16T05:33:53;9.90;99.90
16064;DHT22;8136;53.172;8.256;2023-05-16T05:36:21;10.00;99.90
16064;DHT22;8136;53.172;8.256;2023-05-16T05:38:48;10.00;99.90
16064;DHT22;8136;53.172;8.256;2023-05-16T05:43:51;10.10;99.90
16064;DHT22;8136;53.172;8.256;2023-05-16T05:49:37;10.30;99.90
16064;DHT22;8136;53.172;8.256;2023-05-16T05:52:42;10.30;99.90
16064;DHT22;8136;53.172;8.256;2023-05-16T05:55:14;10.40;99.90
16064;DHT22;8136;53.172;8.256;2023-05-16T05:58:02;10.40;99.90
16064;DHT22;8136;53.172;8.256;2023-05-16T06:03:30;10.40;99.90
16064;DHT22;8136;53.172;8.256;2023-05-16T06:05:56;10.50;99.90
16064;DHT22;8136;53.172;8.256;2023-05-16T06:08:23;10.60;99.90
16064;DHT22;8136;53.172;8.256;2023-05-16T06:10:50;10.70;99.90
16064;DHT22;8136;53.172;8.256;2023-05-16T06:13:17;10.80;99.90
16064;DHT22;8136;53.172;8.256;2023-05-16T06:15:48;10.90;99.90
16064;DHT22;8136;53.172;8.256;2023-05-16T06:18:15;10.90;99.90
16064;DHT22;8136;53.172;8.256;2023-05-16T06:20:43;11.00;99.90
16064;DHT22;8136;53.172;8.256;2023-05-16T06:23:10;11.10;99.90
16064;DHT22;8136;53.172;8.256;2023-05-16T06:25:37;11.20;99.90
16064;DHT22;8136;53.172;8.256;2023-05-16T06:28:04;11.30;99.90
16064;DHT22;8136;53.172;8.256;2023-05-16T06:30:30;11.40;99.90
16064;DHT22;8136;53.172;8.256;2023-05-16T06:32:57;11.40;99.90
16064;DHT22;8136;53.172;8.256;2023-05-16T06:35:24;11.40;99.90
16064;DHT22;8136;53.172;8.256;2023-05-16T06:37:52;11.40;99.90
16064;DHT22;8136;53.172;8.256;2023-05-16T06:40:19;11.50;99.90
16064;DHT22;8136;53.172;8.256;2023-05-16T06:42:46;11.60;99.90
16064;DHT22;8136;53.172;8.256;2023-05-16T06:45:12;11.70;99.90
16064;DHT22;8136;53.172;8.256;2023-05-16T06:47:39;11.70;99.90
16064;DHT22;8136;53.172;8.256;2023-05-16T06:50:07;11.60;99.90
16064;DHT22;8136;53.172;8.256;2023-05-16T06:52:34;11.70;99.90
16064;DHT22;8136;53.172;8.256;2023-05-16T06:55:03;11.80;99.90
16064;DHT22;8136;53.172;8.256;2023-05-16T06:57:30;11.90;99.90
16064;DHT22;8136;53.172;8.256;2023-05-16T06:59:56;11.90;99.90
16064;DHT22;8136;53.172;8.256;2023-05-16T07:02:23;11.90;99.90
16064;DHT22;8136;53.172;8.256;2023-05-16T07:04:50;12.00;99.90
16064;DHT22;8136;53.172;8.256;2023-05-16T07:07:17;12.20;99.90
16064;DHT22;8136;53.172;8.256;2023-05-16T07:09:44;12.20;99.90
16064;DHT22;8136;53.172;8.256;2023-05-16T07:12:12;12.20;99.90
16064;DHT22;8136;53.172;8.256;2023-05-16T07:14:38;12.10;99.90
16064;DHT22;8136;53.172;8.256;2023-05-16T07:17:06;12.00;99.90
16064;DHT22;8136;53.172;8.256;2023-05-16T07:19:32;12.00;99.90
16064;DHT22;8136;53.172;8.256;2023-05-16T07:21:59;11.90;99.90
16064;DHT22;8136;53.172;8.256;2023-05-16T07:24:26;12.00;99.90
16064;DHT22;8136;53.172;8.256;2023-05-16T07:26:53;12.00;99.90
16064;DHT22;8136;53.172;8.256;2023-05-16T07:29:21;12.10;99.90
16064;DHT22;8136;53.172;8.256;2023-05-16T07:31:48;12.10;99.90
16064;DHT22;8136;53.172;8.256;2023-05-16T07:34:15;12.30;99.90
16064;DHT22;8136;53.172;8.256;2023-05-16T07:36:41;12.50;99.90
16064;DHT22;8136;53.172;8.256;2023-05-16T07:39:08;12.60;99.90
16064;DHT22;8136;53.172;8.256;2023-05-16T07:41:35;12.70;99.90
16064;DHT22;8136;53.172;8.256;2023-05-16T07:44:02;12.90;99.90
16064;DHT22;8136;53.172;8.256;2023-05-16T07:46:30;12.80;99.90
16064;DHT22;8136;53.172;8.256;2023-05-16T07:48:56;12.60;99.90
16064;DHT22;8136;53.172;8.256;2023-05-16T07:51:23;12.40;99.90
16064;DHT22;8136;53.172;8.256;2023-05-16T07:53:50;12.20;99.90
16064;DHT22;8136;53.172;8.256;2023-05-16T07:56:17;12.20;99.90
16064;DHT22;8136;53.172;8.256;2023-05-16T07:58:45;12.30;99.90
16064;DHT22;8136;53.172;8.256;2023-05-16T08:01:13;12.40;99.90
16064;DHT22;8136;53.172;8.256;2023-05-16T08:03:41;12.50;99.90
16064;DHT22;8136;53.172;8.256;2023-05-16T08:06:08;12.70;99.90
16064;DHT22;8136;53.172;8.256;2023-05-16T08:08:34;12.80;99.90
16064;DHT22;8136;53.172;8.256;2023-05-16T08:11:01;12.90;99.90
16064;DHT22;8136;53.172;8.256;2023-05-16T08:13:28;13.00;99.90
16064;DHT22;8136;53.172;8.256;2023-05-16T08:15:56;13.00;99.90
16064;DHT22;8136;53.172;8.256;2023-05-16T08:18:22;13.00;99.90
16064;DHT22;8136;53.172;8.256;2023-05-16T08:20:51;12.90;99.90
16064;DHT22;8136;53.172;8.256;2023-05-16T08:23:17;13.00;99.90
16064;DHT22;8136;53.172;8.256;2023-05-16T08:25:44;13.10;99.90
16064;DHT22;8136;53.172;8.256;2023-05-16T08:28:11;13.20;99.90
16064;DHT22;8136;53.172;8.256;2023-05-16T08:30:38;13.30;99.90
16064;DHT22;8136;53.172;8.256;2023-05-16T08:33:05;13.50;99.90
16064;DHT22;8136;53.172;8.256;2023-05-16T08:35:31;13.60;99.90
16064;DHT22;8136;53.172;8.256;2023-05-16T08:38:01;13.40;99.90
16064;DHT22;8136;53.172;8.256;2023-05-16T08:40:28;13.30;99.90
16064;DHT22;8136;53.172;8.256;2023-05-16T08:42:56;13.30;99.90
16064;DHT22;8136;53.172;8.256;2023-05-16T08:45:22;13.30;99.90
16064;DHT22;8136;53.172;8.256;2023-05-16T08:47:49;13.40;99.90
16064;DHT22;8136;53.172;8.256;2023-05-16T08:50:20;13.50;99.90
16064;DHT22;8136;53.172;8.256;2023-05-16T08:52:50;13.70;99.90
16064;DHT22;8136;53.172;8.256;2023-05-16T08:55:19;13.80;99.90
16064;DHT22;8136;53.172;8.256;2023-05-16T08:57:48;13.80;99.90
16064;DHT22;8136;53.172;8.256;2023-05-16T09:00:17;13.80;99.90
16064;DHT22;8136;53.172;8.256;2023-05-16T09:02:44;13.60;99.90
16064;DHT22;8136;53.172;8.256;2023-05-16T09:05:14;13.60;99.90
16064;DHT22;8136;53.172;8.256;2023-05-16T09:07:41;13.80;99.90
16064;DHT22;8136;53.172;8.256;2023-05-16T09:10:09;13.90;99.90
16064;DHT22;8136;53.172;8.256;2023-05-16T09:12:38;13.80;99.90
16064;DHT22;8136;53.172;8.256;2023-05-16T09:15:06;13.80;99.90
16064;DHT22;8136;53.172;8.256;2023-05-16T09:17:35;14.00;99.90
16064;DHT22;8136;53.172;8.256;2023-05-16T09:20:10;14.00;99.90
16064;DHT22;8136;53.172;8.256;2023-05-16T09:22:37;13.80;99.90
16064;DHT22;8136;53.172;8.256;2023-05-16T09:25:05;13.60;99.90
16064;DHT22;8136;53.172;8.256;2023-05-16T09:27:32;13.50;99.90
16064;DHT22;8136;53.172;8.256;2023-05-16T09:30:01;13.50;99.90
16064;DHT22;8136;53.172;8.256;2023-05-16T09:32:30;13.70;99.90
16064;DHT22;8136;53.172;8.256;2023-05-16T09:34:57;13.70;99.90
16064;DHT22;8136;53.172;8.256;2023-05-16T09:37:24;13.70;99.90
16064;DHT22;8136;53.172;8.256;2023-05-16T09:39:52;13.40;99.90
16064;DHT22;8136;53.172;8.256;2023-05-16T09:42:20;13.00;99.90
16064;DHT22;8136;53.172;8.256;2023-05-16T09:44:48;12.70;99.90
16064;DHT22;8136;53.172;8.256;2023-05-16T09:47:18;12.50;99.90
16064;DHT22;8136;53.172;8.256;2023-05-16T09:49:46;12.20;99.90
16064;DHT22;8136;53.172;8.256;2023-05-16T09:52:13;12.00;99.90
16064;DHT22;8136;53.172;8.256;2023-05-16T09:54:41;12.20;99.90
16064;DHT22;8136;53.172;8.256;2023-05-16T09:57:08;12.40;99.90
16064;DHT22;8136;53.172;8.256;2023-05-16T09:59:35;12.70;99.90
16064;DHT22;8136;53.172;8.256;2023-05-16T10:02:02;12.90;99.90
16064;DHT22;8136;53.172;8.256;2023-05-16T10:04:32;13.00;99.90
16064;DHT22;8136;53.172;8.256;2023-05-16T10:07:01;13.00;99.90
16064;DHT22;8136;53.172;8.256;2023-05-16T10:09:29;13.00;99.90
16064;DHT22;8136;53.172;8.256;2023-05-16T10:11:58;13.10;99.90
16064;DHT22;8136;53.172;8.256;2023-05-16T10:14:27;13.20;99.90
16064;DHT22;8136;53.172;8.256;2023-05-16T10:16:56;13.30;99.90
16064;DHT22;8136;53.172;8.256;2023-05-16T10:19:24;13.30;99.90
16064;DHT22;8136;53.172;8.256;2023-05-16T10:21:57;13.20;99.90
16064;DHT22;8136;53.172;8.256;2023-05-16T10:24:28;13.10;99.90
16064;DHT22;8136;53.172;8.256;2023-05-16T10:26:57;12.80;99.90
16064;DHT22;8136;53.172;8.256;2023-05-16T10:29:24;12.30;99.90
16064;DHT22;8136;53.172;8.256;2023-05-16T10:31:51;12.10;99.90
16064;DHT22;8136;53.172;8.256;2023-05-16T10:34:18;12.20;99.90
16064;DHT22;8136;53.172;8.256;2023-05-16T10:36:46;12.40;99.90
16064;DHT22;8136;53.172;8.256;2023-05-16T10:39:14;12.40;99.90
16064;DHT22;8136;53.172;8.256;2023-05-16T10:41:42;12.40;99.90
16064;DHT22;8136;53.172;8.256;2023-05-16T10:44:13;12.40;99.90
16064;DHT22;8136;53.172;8.256;2023-05-16T10:46:41;12.30;99.90
16064;DHT22;8136;53.172;8.256;2023-05-16T10:49:19;12.30;99.90
16064;DHT22;8136;53.172;8.256;2023-05-16T10:52:02;12.40;99.90
16064;DHT22;8136;53.172;8.256;2023-05-16T10:54:35;12.50;99.90
16064;DHT22;8136;53.172;8.256;2023-05-16T10:57:05;12.70;99.90
16064;DHT22;8136;53.172;8.256;2023-05-16T10:59:40;12.80;99.90
16064;DHT22;8136;53.172;8.256;2023-05-16T11:02:22;13.00;99.90
16064;DHT22;8136;53.172;8.256;2023-05-16T11:04:50;13.00;99.90
16064;DHT22;8136;53.172;8.256;2023-05-16T11:07:17;12.90;99.90
16064;DHT22;8136;53.172;8.256;2023-05-16T11:09:52;12.80;99.90
16064;DHT22;8136;53.172;8.256;2023-05-16T11:12:43;12.80;99.90
16064;DHT22;8136;53.172;8.256;2023-05-16T11:15:18;12.80;99.90
16064;DHT22;8136;53.172;8.256;2023-05-16T11:17:45;12.90;99.90
16064;DHT22;8136;53.172;8.256;2023-05-16T11:20:24;13.20;99.90
16064;DHT22;8136;53.172;8.256;2023-05-16T11:23:17;13.60;99.90
16064;DHT22;8136;53.172;8.256;2023-05-16T11:25:47;13.80;99.90
16064;DHT22;8136;53.172;8.256;2023-05-16T11:28:16;13.70;99.90
16064;DHT22;8136;53.172;8.256;2023-05-16T11:30:45;13.40;99.90
16064;DHT22;8136;53.172;8.256;2023-05-16T11:33:12;13.20;99.90
16064;DHT22;8136;53.172;8.256;2023-05-16T11:35:38;13.10;99.90
16064;DHT22;8136;53.172;8.256;2023-05-16T11:38:05;13.10;99.90
16064;DHT22;8136;53.172;8.256;2023-05-16T11:40:32;13.20;99.90
16064;DHT22;8136;53.172;8.256;2023-05-16T11:45:35;13.20;99.90
16064;DHT22;8136;53.172;8.256;2023-05-16T11:48:05;13.00;99.90
16064;DHT22;8136;53.172;8.256;2023-05-16T11:50:52;12.70;99.90
16064;DHT22;8136;53.172;8.256;2023-05-16T11:53:24;12.50;99.90
16064;DHT22;8136;53.172;8.256;2023-05-16T11:55:55;12.70;99.90
16064;DHT22;8136;53.172;8.256;2023-05-16T11:58:28;13.00;99.90
16064;DHT22;8136;53.172;8.256;2023-05-16T12:00:56;13.20;99.90
16064;DHT22;8136;53.172;8.256;2023-05-16T12:03:23;13.40;99.90
16064;DHT22;8136;53.172;8.256;2023-05-16T12:05:50;13.60;99.90
16064;DHT22;8136;53.172;8.256;2023-05-16T12:08:18;13.70;99.90
16064;DHT22;8136;53.172;8.256;2023-05-16T12:10:47;13.80;99.90
16064;DHT22;8136;53.172;8.256;2023-05-16T12:13:15;14.10;99.90
16064;DHT22;8136;53.172;8.256;2023-05-16T12:15:42;14.40;99.90
16064;DHT22;8136;53.172;8.256;2023-05-16T12:18:10;14.70;99.90
16064;DHT22;8136;53.172;8.256;2023-05-16T12:20:38;14.80;99.90
16064;DHT22;8136;53.172;8.256;2023-05-16T12:23:09;14.60;99.90
16064;DHT22;8136;53.172;8.256;2023-05-16T12:25:36;14.20;99.90
16064;DHT22;8136;53.172;8.256;2023-05-16T12:28:06;13.90;99.90
16064;DHT22;8136;53.172;8.256;2023-05-16T12:30:33;13.80;99.90
16064;DHT22;8136;53.172;8.256;2023-05-16T12:33:01;13.70;99.90
16064;DHT22;8136;53.172;8.256;2023-05-16T12:35:32;13.80;99.90
16064;DHT22;8136;53.172;8.256;2023-05-16T12:37:59;14.00;99.90
16064;DHT22;8136;53.172;8.256;2023-05-16T12:40:27;14.00;99.90
16064;DHT22;8136;53.172;8.256;2023-05-16T12:42:55;14.00;99.90
16064;DHT22;8136;53.172;8.256;2023-05-16T12:45:22;13.90;99.90
16064;DHT22;8136;53.172;8.256;2023-05-16T12:47:49;13.70;99.90
16064;DHT22;8136;53.172;8.256;2023-05-16T12:50:16;13.40;99.90
16064;DHT22;8136;53.172;8.256;2023-05-16T12:52:48;13.20;99.90
16064;DHT22;8136;53.172;8.256;2023-05-16T12:55:16;13.20;99.90
16064;DHT22;8136;53.172;8.256;2023-05-16T12:57:43;13.10;99.90
16064;DHT22;8136;53.172;8.256;2023-05-16T13:00:13;13.10;99.90
16064;DHT22;8136;53.172;8.256;2023-05-16T13:02:40;13.00;99.90
16064;DHT22;8136;53.172;8.256;2023-05-16T13:05:09;13.10;99.90
16064;DHT22;8136;53.172;8.256;2023-05-16T13:07:43;13.20;99.90
16064;DHT22;8136;53.172;8.256;2023-05-16T13:11:00;13.40;99.90
16064;DHT22;8136;53.172;8.256;2023-05-16T13:14:05;13.70;99.90
16064;DHT22;8136;53.172;8.256;2023-05-16T13:17:07;14.00;99.90
16064;DHT22;8136;53.172;8.256;2023-05-16T13:20:56;14.20;99.90
16064;DHT22;8136;53.172;8.256;2023-05-16T13:24:16;14.60;99.90
16064;DHT22;8136;53.172;8.256;2023-05-16T13:27:15;14.90;99.90
16064;DHT22;8136;53.172;8.256;2023-05-16T13:30:19;15.10;99.90
16064;DHT22;8136;53.172;8.256;2023-05-16T13:36:35;15.40;99.90
16064;DHT22;8136;53.172;8.256;2023-05-16T13:39:35;15.30;99.90
16064;DHT22;8136;53.172;8.256;2023-05-16T13:42:36;15.00;99.90
16064;DHT22;8136;53.172;8.256;2023-05-16T13:45:30;14.60;99.90
16064;DHT22;8136;53.172;8.256;2023-05-16T13:51:39;14.20;99.90
16064;DHT22;8136;53.172;8.256;2023-05-16T13:57:25;14.60;99.90
16064;DHT22;8136;53.172;8.256;2023-05-16T14:00:01;15.10;99.90
16064;DHT22;8136;53.172;8.256;2023-05-16T14:06:03;15.50;99.90
16064;DHT22;8136;53.172;8.256;2023-05-16T14:08:36;15.50;99.90
16064;DHT22;8136;53.172;8.256;2023-05-16T14:11:34;15.40;99.90
16064;DHT22;8136;53.172;8.256;2023-05-16T14:14:14;15.20;99.90
16064;DHT22;8136;53.172;8.256;2023-05-16T14:20:54;15.10;99.90
16064;DHT22;8136;53.172;8.256;2023-05-16T14:47:03;15.50;99.90
16064;DHT22;8136;53.172;8.256;2023-05-16T14:50:18;15.50;99.90
16064;DHT22;8136;53.172;8.256;2023-05-16T14:53:20;15.80;99.90
16064;DHT22;8136;53.172;8.256;2023-05-16T15:13:28;15.60;99.90
16064;DHT22;8136;53.172;8.256;2023-05-16T15:16:09;16.40;99.90
16064;DHT22;8136;53.172;8.256;2023-05-16T15:19:15;17.40;99.90
16064;DHT22;8136;53.172;8.256;2023-05-16T16:35:59;14.10;99.90
16064;DHT22;8136;53.172;8.256;2023-05-16T16:38:26;13.90;99.90
16064;DHT22;8136;53.172;8.256;2023-05-16T16:40:53;13.80;99.90
16064;DHT22;8136;53.172;8.256;2023-05-16T16:43:20;13.60;99.90
16064;DHT22;8136;53.172;8.256;2023-05-16T16:46:09;13.50;99.90
16064;DHT22;8136;53.172;8.256;2023-05-16T16:48:50;13.40;99.90
16064;DHT22;8136;53.172;8.256;2023-05-16T17:17:53;13.40;99.90
16064;DHT22;8136;53.172;8.256;2023-05-16T17:20:20;13.50;99.90
16064;DHT22;8136;53.172;8.256;2023-05-16T17:22:53;13.50;99.90
16064;DHT22;8136;53.172;8.256;2023-05-16T17:25:29;13.50;99.90
16064;DHT22;8136;53.172;8.256;2023-05-16T17:28:18;13.50;99.90
16064;DHT22;8136;53.172;8.256;2023-05-16T17:30:45;13.60;99.90
16064;DHT22;8136;53.172;8.256;2023-05-16T17:33:46;13.50;99.90
16064;DHT22;8136;53.172;8.256;2023-05-16T17:36:13;13.50;99.90
16064;DHT22;8136;53.172;8.256;2023-05-16T17:38:40;13.50;99.90
16064;DHT22;8136;53.172;8.256;2023-05-16T17:44:13;13.50;99.90
16064;DHT22;8136;53.172;8.256;2023-05-16T17:46:40;13.40;99.90
16064;DHT22;8136;53.172;8.256;2023-05-16T17:49:08;13.40;99.90
16064;DHT22;8136;53.172;8.256;2023-05-16T17:51:45;13.20;99.90
16064;DHT22;8136;53.172;8.256;2023-05-16T17:54:12;13.30;99.90
16064;DHT22;8136;53.172;8.256;2023-05-16T17:56:40;13.20;99.90
16064;DHT22;8136;53.172;8.256;2023-05-16T17:59:09;13.10;99.90
16064;DHT22;8136;53.172;8.256;2023-05-16T18:01:36;13.10;99.90
16064;DHT22;8136;53.172;8.256;2023-05-16T18:04:03;13.10;99.90
16064;DHT22;8136;53.172;8.256;2023-05-16T18:06:32;13.10;99.90
16064;DHT22;8136;53.172;8.256;2023-05-16T18:08:59;13.20;99.90
16064;DHT22;8136;53.172;8.256;2023-05-16T18:11:29;13.20;99.90
16064;DHT22;8136;53.172;8.256;2023-05-16T18:13:56;13.10;99.90
16064;DHT22;8136;53.172;8.256;2023-05-16T18:16:23;13.00;99.90
16064;DHT22;8136;53.172;8.256;2023-05-16T18:18:50;13.00;99.90
16064;DHT22;8136;53.172;8.256;2023-05-16T18:21:17;13.00;99.90
16064;DHT22;8136;53.172;8.256;2023-05-16T18:23:46;13.10;99.90
16064;DHT22;8136;53.172;8.256;2023-05-16T18:26:13;13.30;99.90
16064;DHT22;8136;53.172;8.256;2023-05-16T18:28:41;13.30;99.90
16064;DHT22;8136;53.172;8.256;2023-05-16T18:31:08;13.20;99.90
16064;DHT22;8136;53.172;8.256;2023-05-16T18:33:35;13.10;99.90
16064;DHT22;8136;53.172;8.256;2023-05-16T18:36:02;13.00;99.90
16064;DHT22;8136;53.172;8.256;2023-05-16T18:38:29;12.90;99.90
16064;DHT22;8136;53.172;8.256;2023-05-16T18:40:57;12.90;99.90
16064;DHT22;8136;53.172;8.256;2023-05-16T18:43:24;13.00;99.90
16064;DHT22;8136;53.172;8.256;2023-05-16T18:45:51;13.00;99.90
16064;DHT22;8136;53.172;8.256;2023-05-16T18:48:18;12.90;99.90
16064;DHT22;8136;53.172;8.256;2023-05-16T18:50:45;12.90;99.90
16064;DHT22;8136;53.172;8.256;2023-05-16T18:53:11;12.80;99.90
16064;DHT22;8136;53.172;8.256;2023-05-16T18:55:38;12.90;99.90
16064;DHT22;8136;53.172;8.256;2023-05-16T18:58:06;12.90;99.90
16064;DHT22;8136;53.172;8.256;2023-05-16T19:00:33;12.90;99.90